sensor_id;sensor_type;location;lat;lon;timestamp;P1;durP1;ratioP1;P2;durP2;ratioP2
14619;SDS011;32125;48.518;9.050;2023-08-12T00:00:23;5.80;;;5.30;;
14619;SDS011;32125;48.518;9.050;2023-08-12T00:02:49;5.97;;;5.37;;
14619;SDS011;32125;48.518;9.050;2023-08-12T00:05:15;5.50;;;5.00;;
14619;SDS011;32125;48.518;9.050;2023-08-12T00:07:44;5.73;;;5.03;;
14619;SDS011;32125;48.518;9.050;2023-08-12T00:10:11;7.33;;;5.23;;
14619;SDS011;32125;48.518;9.050;2023-08-12T00:12:37;5.80;;;5.30;;
14619;SDS011;32125;48.518;9.050;2023-08-12T00:15:04;5.60;;;5.10;;
14619;SDS011;32125;48.518;9.050;2023-08-12T00:17:31;6.83;;;5.50;;
14619;SDS011;32125;48.518;9.050;2023-08-12T00:19:58;8.20;;;5.23;;
14619;SDS011;32125;48.518;9.050;2023-08-12T00:22:23;7.10;;;4.60;;
14619;SDS011;32125;48.518;9.050;2023-08-12T00:24:50;6.63;;;5.03;;
14619;SDS011;32125;48.518;9.050;2023-08-12T00:27:16;5.37;;;4.87;;
14619;SDS011;32125;48.518;9.050;2023-08-12T00:29:42;7.80;;;4.90;;
14619;SDS011;32125;48.518;9.050;2023-08-12T00:32:09;6.00;;;5.30;;
14619;SDS011;32125;48.518;9.050;2023-08-12T00:34:35;5.70;;;5.13;;
14619;SDS011;32125;48.518;9.050;2023-08-12T00:37:01;6.47;;;5.23;;
14619;SDS011;32125;48.518;9.050;2023-08-12T00:39:27;5.63;;;5.03;;
14619;SDS011;32125;48.518;9.050;2023-08-12T00:41:55;7.83;;;5.37;;
14619;SDS011;32125;48.518;9.050;2023-08-12T00:44:24;9.53;;;5.00;;
14619;SDS011;32125;48.518;9.050;2023-08-12T00:46:55;9.70;;;5.47;;
14619;SDS011;32125;48.518;9.050;2023-08-12T00:49:22;6.10;;;5.30;;
14619;SDS011;32125;48.518;9.050;2023-08-12T00:51:49;5.90;;;5.30;;
14619;SDS011;32125;48.518;9.050;2023-08-12T00:54:15;5.37;;;4.90;;
14619;SDS011;32125;48.518;9.050;2023-08-12T00:56:44;6.07;;;5.57;;
14619;SDS011;32125;48.518;9.050;2023-08-12T00:59:10;7.77;;;5.70;;
14619;SDS011;32125;48.518;9.050;2023-08-12T01:01:38;6.43;;;5.80;;
14619;SDS011;32125;48.518;9.050;2023-08-12T01:04:08;6.83;;;5.70;;
14619;SDS011;32125;48.518;9.050;2023-08-12T01:06:37;8.17;;;5.60;;
14619;SDS011;32125;48.518;9.050;2023-08-12T01:09:05;6.37;;;5.87;;
14619;SDS011;32125;48.518;9.050;2023-08-12T01:16:41;6.13;;;5.63;;
14619;SDS011;32125;48.518;9.050;2023-08-12T01:19:11;6.97;;;5.67;;
14619;SDS011;32125;48.518;9.050;2023-08-12T01:21:43;6.90;;;6.17;;
14619;SDS011;32125;48.518;9.050;2023-08-12T01:24:11;7.33;;;6.00;;
14619;SDS011;32125;48.518;9.050;2023-08-12T01:26:40;6.57;;;5.77;;
14619;SDS011;32125;48.518;9.050;2023-08-12T01:29:06;8.00;;;5.87;;
14619;SDS011;32125;48.518;9.050;2023-08-12T01:31:36;6.60;;;6.00;;
14619;SDS011;32125;48.518;9.050;2023-08-12T01:36:39;6.27;;;5.67;;
14619;SDS011;32125;48.518;9.050;2023-08-12T01:39:15;7.40;;;6.33;;
14619;SDS011;32125;48.518;9.050;2023-08-12T01:41:43;7.17;;;6.00;;
14619;SDS011;32125;48.518;9.050;2023-08-12T01:44:09;6.93;;;6.23;;
14619;SDS011;32125;48.518;9.050;2023-08-12T01:46:35;6.50;;;5.90;;
14619;SDS011;32125;48.518;9.050;2023-08-12T01:49:02;6.63;;;6.03;;
14619;SDS011;32125;48.518;9.050;2023-08-12T01:51:28;6.60;;;6.00;;
14619;SDS011;32125;48.518;9.050;2023-08-12T01:53:54;7.93;;;5.90;;
14619;SDS011;32125;48.518;9.050;2023-08-12T01:56:20;6.47;;;5.87;;
14619;SDS011;32125;48.518;9.050;2023-08-12T01:58:49;7.97;;;6.23;;
14619;SDS011;32125;48.518;9.050;2023-08-12T02:01:17;7.00;;;6.20;;
14619;SDS011;32125;48.518;9.050;2023-08-12T02:03:43;7.40;;;6.00;;
14619;SDS011;32125;48.518;9.050;2023-08-12T02:06:09;7.40;;;6.20;;
14619;SDS011;32125;48.518;9.050;2023-08-12T02:08:34;7.30;;;6.20;;
14619;SDS011;32125;48.518;9.050;2023-08-12T02:11:00;7.47;;;5.73;;
14619;SDS011;32125;48.518;9.050;2023-08-12T02:13:26;9.17;;;6.33;;
14619;SDS011;32125;48.518;9.050;2023-08-12T02:15:52;8.03;;;6.43;;
14619;SDS011;32125;48.518;9.050;2023-08-12T02:18:19;7.57;;;5.93;;
14619;SDS011;32125;48.518;9.050;2023-08-12T02:20:46;6.47;;;5.80;;
14619;SDS011;32125;48.518;9.050;2023-08-12T02:23:13;6.83;;;6.20;;
14619;SDS011;32125;48.518;9.050;2023-08-12T02:25:39;6.60;;;6.00;;
14619;SDS011;32125;48.518;9.050;2023-08-12T02:28:05;6.80;;;6.10;;
14619;SDS011;32125;48.518;9.050;2023-08-12T02:30:30;7.03;;;6.13;;
14619;SDS011;32125;48.518;9.050;2023-08-12T02:32:56;7.70;;;6.30;;
14619;SDS011;32125;48.518;9.050;2023-08-12T02:35:22;8.27;;;6.60;;
14619;SDS011;32125;48.518;9.050;2023-08-12T02:37:48;7.10;;;6.40;;
14619;SDS011;32125;48.518;9.050;2023-08-12T02:40:14;9.10;;;6.10;;
14619;SDS011;32125;48.518;9.050;2023-08-12T02:42:41;7.90;;;6.60;;
14619;SDS011;32125;48.518;9.050;2023-08-12T02:45:07;7.13;;;6.43;;
14619;SDS011;32125;48.518;9.050;2023-08-12T02:47:32;7.00;;;6.30;;
14619;SDS011;32125;48.518;9.050;2023-08-12T02:49:58;7.17;;;6.40;;
14619;SDS011;32125;48.518;9.050;2023-08-12T02:52:25;8.07;;;6.47;;
14619;SDS011;32125;48.518;9.050;2023-08-12T02:54:51;7.30;;;6.60;;
14619;SDS011;32125;48.518;9.050;2023-08-12T02:57:17;7.37;;;6.53;;
14619;SDS011;32125;48.518;9.050;2023-08-12T02:59:43;6.60;;;6.00;;
14619;SDS011;32125;48.518;9.050;2023-08-12T03:02:09;7.53;;;6.83;;
14619;SDS011;32125;48.518;9.050;2023-08-12T03:04:38;7.13;;;6.43;;
14619;SDS011;32125;48.518;9.050;2023-08-12T03:07:04;8.80;;;6.73;;
14619;SDS011;32125;48.518;9.050;2023-08-12T03:09:30;7.10;;;6.40;;
14619;SDS011;32125;48.518;9.050;2023-08-12T03:11:58;6.60;;;5.90;;
14619;SDS011;32125;48.518;9.050;2023-08-12T03:14:28;6.97;;;6.27;;
14619;SDS011;32125;48.518;9.050;2023-08-12T03:16:54;8.43;;;6.40;;
14619;SDS011;32125;48.518;9.050;2023-08-12T03:19:22;7.70;;;6.67;;
14619;SDS011;32125;48.518;9.050;2023-08-12T03:21:48;9.37;;;6.43;;
14619;SDS011;32125;48.518;9.050;2023-08-12T03:24:14;9.60;;;6.40;;
14619;SDS011;32125;48.518;9.050;2023-08-12T03:26:43;8.50;;;6.10;;
14619;SDS011;32125;48.518;9.050;2023-08-12T03:29:09;9.37;;;6.63;;
14619;SDS011;32125;48.518;9.050;2023-08-12T03:31:35;11.33;;;6.70;;
14619;SDS011;32125;48.518;9.050;2023-08-12T03:34:01;9.10;;;6.77;;
14619;SDS011;32125;48.518;9.050;2023-08-12T03:36:29;8.17;;;6.30;;
14619;SDS011;32125;48.518;9.050;2023-08-12T03:38:55;6.93;;;5.93;;
14619;SDS011;32125;48.518;9.050;2023-08-12T03:41:21;6.63;;;6.03;;
14619;SDS011;32125;48.518;9.050;2023-08-12T03:43:47;9.57;;;6.70;;
14619;SDS011;32125;48.518;9.050;2023-08-12T03:46:13;7.00;;;6.37;;
14619;SDS011;32125;48.518;9.050;2023-08-12T03:48:39;9.63;;;6.83;;
14619;SDS011;32125;48.518;9.050;2023-08-12T03:51:05;7.50;;;6.17;;
14619;SDS011;32125;48.518;9.050;2023-08-12T03:53:33;6.67;;;6.00;;
14619;SDS011;32125;48.518;9.050;2023-08-12T03:55:59;9.63;;;6.60;;
14619;SDS011;32125;48.518;9.050;2023-08-12T03:58:25;6.80;;;6.10;;
14619;SDS011;32125;48.518;9.050;2023-08-12T04:00:51;7.63;;;6.60;;
14619;SDS011;32125;48.518;9.050;2023-08-12T04:03:17;9.00;;;6.63;;
14619;SDS011;32125;48.518;9.050;2023-08-12T04:05:47;9.30;;;7.20;;
14619;SDS011;32125;48.518;9.050;2023-08-12T04:08:14;10.43;;;6.87;;
14619;SDS011;32125;48.518;9.050;2023-08-12T04:10:43;8.13;;;6.90;;
14619;SDS011;32125;48.518;9.050;2023-08-12T04:13:12;7.30;;;6.00;;
14619;SDS011;32125;48.518;9.050;2023-08-12T04:15:38;8.00;;;6.73;;
14619;SDS011;32125;48.518;9.050;2023-08-12T04:18:07;7.03;;;6.43;;
14619;SDS011;32125;48.518;9.050;2023-08-12T04:20:37;8.40;;;6.50;;
14619;SDS011;32125;48.518;9.050;2023-08-12T04:23:03;7.77;;;6.73;;
14619;SDS011;32125;48.518;9.050;2023-08-12T04:25:32;7.30;;;6.60;;
14619;SDS011;32125;48.518;9.050;2023-08-12T04:27:58;8.00;;;6.70;;
14619;SDS011;32125;48.518;9.050;2023-08-12T04:30:26;7.00;;;6.30;;
14619;SDS011;32125;48.518;9.050;2023-08-12T04:32:52;7.00;;;6.30;;
14619;SDS011;32125;48.518;9.050;2023-08-12T04:35:18;6.97;;;6.27;;
14619;SDS011;32125;48.518;9.050;2023-08-12T04:37:44;7.47;;;6.30;;
14619;SDS011;32125;48.518;9.050;2023-08-12T04:40:10;7.37;;;6.33;;
14619;SDS011;32125;48.518;9.050;2023-08-12T04:42:36;6.90;;;6.30;;
14619;SDS011;32125;48.518;9.050;2023-08-12T04:45:02;6.97;;;6.27;;
14619;SDS011;32125;48.518;9.050;2023-08-12T04:47:28;8.17;;;6.57;;
14619;SDS011;32125;48.518;9.050;2023-08-12T04:49:54;9.57;;;6.60;;
14619;SDS011;32125;48.518;9.050;2023-08-12T04:52:20;7.20;;;6.50;;
14619;SDS011;32125;48.518;9.050;2023-08-12T04:54:52;7.60;;;6.13;;
14619;SDS011;32125;48.518;9.050;2023-08-12T04:57:18;7.90;;;6.20;;
14619;SDS011;32125;48.518;9.050;2023-08-12T04:59:44;7.67;;;6.90;;
14619;SDS011;32125;48.518;9.050;2023-08-12T05:02:10;9.63;;;6.63;;
14619;SDS011;32125;48.518;9.050;2023-08-12T05:04:36;8.70;;;7.07;;
14619;SDS011;32125;48.518;9.050;2023-08-12T05:07:02;6.67;;;6.07;;
14619;SDS011;32125;48.518;9.050;2023-08-12T05:09:28;7.20;;;6.50;;
14619;SDS011;32125;48.518;9.050;2023-08-12T05:11:54;6.53;;;5.93;;
14619;SDS011;32125;48.518;9.050;2023-08-12T05:14:20;7.20;;;6.50;;
14619;SDS011;32125;48.518;9.050;2023-08-12T05:16:46;7.20;;;6.50;;
14619;SDS011;32125;48.518;9.050;2023-08-12T05:19:12;6.77;;;6.10;;
14619;SDS011;32125;48.518;9.050;2023-08-12T05:21:38;6.93;;;6.33;;
14619;SDS011;32125;48.518;9.050;2023-08-12T05:24:04;7.60;;;6.83;;
14619;SDS011;32125;48.518;9.050;2023-08-12T05:26:33;7.33;;;6.63;;
14619;SDS011;32125;48.518;9.050;2023-08-12T05:28:59;6.63;;;5.93;;
14619;SDS011;32125;48.518;9.050;2023-08-12T05:31:29;6.67;;;5.90;;
14619;SDS011;32125;48.518;9.050;2023-08-12T05:33:55;7.07;;;6.45;;
14619;SDS011;32125;48.518;9.050;2023-08-12T05:36:21;7.57;;;6.20;;
14619;SDS011;32125;48.518;9.050;2023-08-12T05:38:47;7.57;;;6.03;;
14619;SDS011;32125;48.518;9.050;2023-08-12T05:41:13;6.80;;;5.70;;
14619;SDS011;32125;48.518;9.050;2023-08-12T05:43:39;6.80;;;6.15;;
14619;SDS011;32125;48.518;9.050;2023-08-12T05:46:04;6.80;;;5.78;;
14619;SDS011;32125;48.518;9.050;2023-08-12T05:48:33;6.95;;;6.20;;
14619;SDS011;32125;48.518;9.050;2023-08-12T05:50:59;7.57;;;5.53;;
14619;SDS011;32125;48.518;9.050;2023-08-12T05:53:25;6.50;;;5.90;;
14619;SDS011;32125;48.518;9.050;2023-08-12T05:55:50;10.55;;;6.28;;
14619;SDS011;32125;48.518;9.050;2023-08-12T05:58:16;6.80;;;6.10;;
14619;SDS011;32125;48.518;9.050;2023-08-12T06:00:42;8.88;;;6.05;;
14619;SDS011;32125;48.518;9.050;2023-08-12T06:03:12;8.70;;;6.07;;
14619;SDS011;32125;48.518;9.050;2023-08-12T06:05:39;6.07;;;5.45;;
14619;SDS011;32125;48.518;9.050;2023-08-12T06:08:06;6.45;;;5.82;;
14619;SDS011;32125;48.518;9.050;2023-08-12T06:10:33;9.38;;;5.45;;
14619;SDS011;32125;48.518;9.050;2023-08-12T06:13:01;7.70;;;5.72;;
14619;SDS011;32125;48.518;9.050;2023-08-12T06:15:27;6.70;;;5.65;;
14619;SDS011;32125;48.518;9.050;2023-08-12T06:17:53;6.90;;;5.10;;
14619;SDS011;32125;48.518;9.050;2023-08-12T06:20:19;8.05;;;5.30;;
14619;SDS011;32125;48.518;9.050;2023-08-12T06:22:45;5.75;;;5.15;;
14619;SDS011;32125;48.518;9.050;2023-08-12T06:25:11;7.70;;;5.25;;
14619;SDS011;32125;48.518;9.050;2023-08-12T06:27:37;8.07;;;4.90;;
14619;SDS011;32125;48.518;9.050;2023-08-12T06:30:04;6.65;;;5.22;;
14619;SDS011;32125;48.518;9.050;2023-08-12T06:32:30;8.48;;;5.10;;
14619;SDS011;32125;48.518;9.050;2023-08-12T06:34:56;5.20;;;4.43;;
14619;SDS011;32125;48.518;9.050;2023-08-12T06:37:22;6.80;;;5.10;;
14619;SDS011;32125;48.518;9.050;2023-08-12T06:39:48;5.47;;;4.97;;
14619;SDS011;32125;48.518;9.050;2023-08-12T06:42:13;8.25;;;5.07;;
14619;SDS011;32125;48.518;9.050;2023-08-12T06:44:40;5.30;;;4.80;;
14619;SDS011;32125;48.518;9.050;2023-08-12T06:47:05;6.82;;;4.97;;
14619;SDS011;32125;48.518;9.050;2023-08-12T06:49:31;6.18;;;4.97;;
14619;SDS011;32125;48.518;9.050;2023-08-12T06:51:57;5.32;;;4.82;;
14619;SDS011;32125;48.518;9.050;2023-08-12T06:54:23;5.68;;;5.00;;
14619;SDS011;32125;48.518;9.050;2023-08-12T06:56:49;5.97;;;4.63;;
14619;SDS011;32125;48.518;9.050;2023-08-12T06:59:15;5.72;;;4.70;;
14619;SDS011;32125;48.518;9.050;2023-08-12T07:01:42;8.55;;;4.55;;
14619;SDS011;32125;48.518;9.050;2023-08-12T07:04:08;7.90;;;4.40;;
14619;SDS011;32125;48.518;9.050;2023-08-12T07:06:37;6.15;;;4.10;;
14619;SDS011;32125;48.518;9.050;2023-08-12T07:09:02;5.22;;;4.15;;
14619;SDS011;32125;48.518;9.050;2023-08-12T07:11:31;4.45;;;4.05;;
14619;SDS011;32125;48.518;9.050;2023-08-12T07:13:59;5.10;;;4.20;;
14619;SDS011;32125;48.518;9.050;2023-08-12T07:16:25;5.85;;;4.10;;
14619;SDS011;32125;48.518;9.050;2023-08-12T07:18:51;4.40;;;4.00;;
14619;SDS011;32125;48.518;9.050;2023-08-12T07:21:17;5.97;;;3.97;;
14619;SDS011;32125;48.518;9.050;2023-08-12T07:23:43;4.50;;;4.10;;
14619;SDS011;32125;48.518;9.050;2023-08-12T07:26:09;5.40;;;3.80;;
14619;SDS011;32125;48.518;9.050;2023-08-12T07:28:35;4.85;;;3.80;;
14619;SDS011;32125;48.518;9.050;2023-08-12T07:31:01;5.22;;;3.85;;
14619;SDS011;32125;48.518;9.050;2023-08-12T07:33:27;4.38;;;3.58;;
14619;SDS011;32125;48.518;9.050;2023-08-12T07:35:53;4.40;;;3.47;;
14619;SDS011;32125;48.518;9.050;2023-08-12T07:38:19;6.40;;;4.07;;
14619;SDS011;32125;48.518;9.050;2023-08-12T07:40:45;6.78;;;3.88;;
14619;SDS011;32125;48.518;9.050;2023-08-12T07:43:11;5.65;;;3.53;;
14619;SDS011;32125;48.518;9.050;2023-08-12T07:45:39;5.30;;;3.38;;
14619;SDS011;32125;48.518;9.050;2023-08-12T07:48:05;10.35;;;5.45;;
14619;SDS011;32125;48.518;9.050;2023-08-12T07:50:33;4.00;;;3.58;;
14619;SDS011;32125;48.518;9.050;2023-08-12T07:52:59;5.40;;;3.30;;
14619;SDS011;32125;48.518;9.050;2023-08-12T07:55:26;4.07;;;3.28;;
14619;SDS011;32125;48.518;9.050;2023-08-12T07:57:52;4.28;;;3.30;;
14619;SDS011;32125;48.518;9.050;2023-08-12T08:00:18;3.65;;;3.35;;
14619;SDS011;32125;48.518;9.050;2023-08-12T08:02:44;3.72;;;3.42;;
14619;SDS011;32125;48.518;9.050;2023-08-12T08:05:10;3.90;;;3.60;;
14619;SDS011;32125;48.518;9.050;2023-08-12T08:07:37;4.25;;;3.72;;
14619;SDS011;32125;48.518;9.050;2023-08-12T08:10:03;4.47;;;3.78;;
14619;SDS011;32125;48.518;9.050;2023-08-12T08:12:31;5.28;;;3.72;;
14619;SDS011;32125;48.518;9.050;2023-08-12T08:14:59;4.20;;;3.80;;
14619;SDS011;32125;48.518;9.050;2023-08-12T08:17:25;4.05;;;3.75;;
14619;SDS011;32125;48.518;9.050;2023-08-12T08:19:53;5.75;;;4.20;;
14619;SDS011;32125;48.518;9.050;2023-08-12T08:22:19;4.32;;;3.92;;
14619;SDS011;32125;48.518;9.050;2023-08-12T08:24:45;6.75;;;4.03;;
14619;SDS011;32125;48.518;9.050;2023-08-12T08:27:11;5.53;;;4.28;;
14619;SDS011;32125;48.518;9.050;2023-08-12T08:29:38;6.45;;;4.28;;
14619;SDS011;32125;48.518;9.050;2023-08-12T08:32:04;4.13;;;3.83;;
14619;SDS011;32125;48.518;9.050;2023-08-12T08:34:30;4.35;;;4.03;;
14619;SDS011;32125;48.518;9.050;2023-08-12T08:36:56;5.97;;;4.25;;
14619;SDS011;32125;48.518;9.050;2023-08-12T08:39:22;8.32;;;4.13;;
14619;SDS011;32125;48.518;9.050;2023-08-12T08:41:48;4.25;;;3.95;;
14619;SDS011;32125;48.518;9.050;2023-08-12T08:44:14;6.45;;;4.00;;
14619;SDS011;32125;48.518;9.050;2023-08-12T08:46:41;4.03;;;3.63;;
14619;SDS011;32125;48.518;9.050;2023-08-12T08:49:08;4.95;;;3.72;;
14619;SDS011;32125;48.518;9.050;2023-08-12T08:51:37;4.57;;;3.50;;
14619;SDS011;32125;48.518;9.050;2023-08-12T08:54:03;7.32;;;3.75;;
14619;SDS011;32125;48.518;9.050;2023-08-12T08:56:31;5.28;;;3.65;;
14619;SDS011;32125;48.518;9.050;2023-08-12T08:58:59;4.10;;;3.35;;
14619;SDS011;32125;48.518;9.050;2023-08-12T09:01:25;5.75;;;3.78;;
14619;SDS011;32125;48.518;9.050;2023-08-12T09:03:53;5.20;;;3.17;;
14619;SDS011;32125;48.518;9.050;2023-08-12T09:06:21;4.28;;;3.88;;
14619;SDS011;32125;48.518;9.050;2023-08-12T09:08:48;3.97;;;3.35;;
14619;SDS011;32125;48.518;9.050;2023-08-12T09:11:14;4.88;;;3.22;;
14619;SDS011;32125;48.518;9.050;2023-08-12T09:13:42;4.63;;;3.35;;
14619;SDS011;32125;48.518;9.050;2023-08-12T09:16:11;4.15;;;3.72;;
14619;SDS011;32125;48.518;9.050;2023-08-12T09:18:37;3.85;;;3.55;;
14619;SDS011;32125;48.518;9.050;2023-08-12T09:21:03;6.22;;;3.33;;
14619;SDS011;32125;48.518;9.050;2023-08-12T09:23:40;4.68;;;3.42;;
14619;SDS011;32125;48.518;9.050;2023-08-12T09:26:13;3.42;;;3.13;;
14619;SDS011;32125;48.518;9.050;2023-08-12T09:28:40;3.38;;;3.08;;
14619;SDS011;32125;48.518;9.050;2023-08-12T09:31:06;4.95;;;3.00;;
14619;SDS011;32125;48.518;9.050;2023-08-12T09:33:37;4.63;;;3.10;;
14619;SDS011;32125;48.518;9.050;2023-08-12T09:36:04;4.00;;;3.60;;
14619;SDS011;32125;48.518;9.050;2023-08-12T09:38:30;4.28;;;3.40;;
14619;SDS011;32125;48.518;9.050;2023-08-12T09:40:56;3.85;;;3.55;;
14619;SDS011;32125;48.518;9.050;2023-08-12T09:43:23;7.07;;;3.53;;
14619;SDS011;32125;48.518;9.050;2023-08-12T09:45:55;6.03;;;3.25;;
14619;SDS011;32125;48.518;9.050;2023-08-12T09:48:21;6.22;;;3.38;;
14619;SDS011;32125;48.518;9.050;2023-08-12T09:50:47;4.43;;;3.60;;
14619;SDS011;32125;48.518;9.050;2023-08-12T09:53:13;3.60;;;3.22;;
14619;SDS011;32125;48.518;9.050;2023-08-12T09:55:41;4.25;;;3.05;;
14619;SDS011;32125;48.518;9.050;2023-08-12T09:58:08;4.47;;;3.40;;
14619;SDS011;32125;48.518;9.050;2023-08-12T10:00:39;3.50;;;3.20;;
14619;SDS011;32125;48.518;9.050;2023-08-12T10:03:06;4.43;;;3.33;;
14619;SDS011;32125;48.518;9.050;2023-08-12T10:05:35;3.80;;;3.50;;
14619;SDS011;32125;48.518;9.050;2023-08-12T10:08:02;5.03;;;3.40;;
14619;SDS011;32125;48.518;9.050;2023-08-12T10:10:29;3.72;;;3.42;;
14619;SDS011;32125;48.518;9.050;2023-08-12T10:12:57;5.75;;;3.25;;
14619;SDS011;32125;48.518;9.050;2023-08-12T10:15:23;4.00;;;3.60;;
14619;SDS011;32125;48.518;9.050;2023-08-12T10:17:52;3.72;;;3.30;;
14619;SDS011;32125;48.518;9.050;2023-08-12T10:20:23;5.25;;;3.60;;
14619;SDS011;32125;48.518;9.050;2023-08-12T10:22:52;3.50;;;3.20;;
14619;SDS011;32125;48.518;9.050;2023-08-12T10:25:20;3.90;;;3.50;;
14619;SDS011;32125;48.518;9.050;2023-08-12T10:27:49;4.63;;;3.35;;
14619;SDS011;32125;48.518;9.050;2023-08-12T10:30:15;3.30;;;3.00;;
14619;SDS011;32125;48.518;9.050;2023-08-12T10:32:41;3.72;;;3.42;;
14619;SDS011;32125;48.518;9.050;2023-08-12T10:35:14;4.05;;;3.05;;
14619;SDS011;32125;48.518;9.050;2023-08-12T10:37:40;6.63;;;3.28;;
14619;SDS011;32125;48.518;9.050;2023-08-12T10:40:09;5.30;;;3.33;;
14619;SDS011;32125;48.518;9.050;2023-08-12T10:42:49;3.85;;;3.00;;
14619;SDS011;32125;48.518;9.050;2023-08-12T10:45:16;5.57;;;2.90;;
14619;SDS011;32125;48.518;9.050;2023-08-12T10:50:34;2.60;;;2.20;;
14619;SDS011;32125;48.518;9.050;2023-08-12T10:52:59;2.30;;;2.10;;
14619;SDS011;32125;48.518;9.050;2023-08-12T10:55:47;2.30;;;2.10;;
14619;SDS011;32125;48.518;9.050;2023-08-12T10:58:23;2.30;;;2.10;;
14619;SDS011;32125;48.518;9.050;2023-08-12T11:00:54;2.97;;;2.10;;
14619;SDS011;32125;48.518;9.050;2023-08-12T11:03:21;2.40;;;2.20;;
14619;SDS011;32125;48.518;9.050;2023-08-12T11:05:49;4.28;;;2.00;;
14619;SDS011;32125;48.518;9.050;2023-08-12T11:08:15;2.53;;;1.85;;
14619;SDS011;32125;48.518;9.050;2023-08-12T11:10:42;2.55;;;1.95;;
14619;SDS011;32125;48.518;9.050;2023-08-12T11:13:10;2.05;;;1.90;;
14619;SDS011;32125;48.518;9.050;2023-08-12T11:18:03;2.88;;;2.03;;
14619;SDS011;32125;48.518;9.050;2023-08-12T11:20:29;3.20;;;1.75;;
14619;SDS011;32125;48.518;9.050;2023-08-12T11:22:58;4.60;;;2.10;;
14619;SDS011;32125;48.518;9.050;2023-08-12T11:25:24;2.83;;;1.90;;
14619;SDS011;32125;48.518;9.050;2023-08-12T11:27:51;2.20;;;2.00;;
14619;SDS011;32125;48.518;9.050;2023-08-12T11:30:17;3.08;;;1.83;;
14619;SDS011;32125;48.518;9.050;2023-08-12T11:32:46;3.42;;;2.00;;
14619;SDS011;32125;48.518;9.050;2023-08-12T11:35:14;3.75;;;1.98;;
14619;SDS011;32125;48.518;9.050;2023-08-12T11:37:41;4.43;;;2.40;;
14619;SDS011;32125;48.518;9.050;2023-08-12T11:40:09;4.47;;;2.50;;
14619;SDS011;32125;48.518;9.050;2023-08-12T11:42:43;3.78;;;2.08;;
14619;SDS011;32125;48.518;9.050;2023-08-12T11:45:12;3.72;;;2.00;;
14619;SDS011;32125;48.518;9.050;2023-08-12T11:47:40;3.30;;;2.03;;
14619;SDS011;32125;48.518;9.050;2023-08-12T11:50:09;2.33;;;1.95;;
14619;SDS011;32125;48.518;9.050;2023-08-12T11:52:36;3.22;;;2.30;;
14619;SDS011;32125;48.518;9.050;2023-08-12T11:55:09;3.00;;;2.10;;
14619;SDS011;32125;48.518;9.050;2023-08-12T11:57:35;3.67;;;1.88;;
14619;SDS011;32125;48.518;9.050;2023-08-12T12:00:05;4.72;;;2.25;;
14619;SDS011;32125;48.518;9.050;2023-08-12T12:02:39;3.65;;;2.17;;
14619;SDS011;32125;48.518;9.050;2023-08-12T12:05:11;5.53;;;2.13;;
14619;SDS011;32125;48.518;9.050;2023-08-12T12:07:37;2.63;;;2.10;;
14619;SDS011;32125;48.518;9.050;2023-08-12T12:10:11;5.72;;;2.22;;
14619;SDS011;32125;48.518;9.050;2023-08-12T12:12:50;3.25;;;2.42;;
14619;SDS011;32125;48.518;9.050;2023-08-12T12:15:19;4.45;;;2.40;;
14619;SDS011;32125;48.518;9.050;2023-08-12T12:17:45;3.60;;;2.20;;
14619;SDS011;32125;48.518;9.050;2023-08-12T12:20:14;3.38;;;2.17;;
14619;SDS011;32125;48.518;9.050;2023-08-12T12:22:41;4.63;;;2.25;;
14619;SDS011;32125;48.518;9.050;2023-08-12T12:25:14;4.78;;;2.47;;
14619;SDS011;32125;48.518;9.050;2023-08-12T12:27:41;2.53;;;2.30;;
14619;SDS011;32125;48.518;9.050;2023-08-12T12:30:11;3.10;;;2.50;;
14619;SDS011;32125;48.518;9.050;2023-08-12T12:32:38;4.57;;;2.33;;
14619;SDS011;32125;48.518;9.050;2023-08-12T12:35:04;3.05;;;2.70;;
14619;SDS011;32125;48.518;9.050;2023-08-12T12:37:34;3.83;;;2.20;;
14619;SDS011;32125;48.518;9.050;2023-08-12T12:40:02;6.32;;;2.70;;
14619;SDS011;32125;48.518;9.050;2023-08-12T12:42:28;4.57;;;2.83;;
14619;SDS011;32125;48.518;9.050;2023-08-12T12:44:54;11.38;;;3.53;;
14619;SDS011;32125;48.518;9.050;2023-08-12T12:47:20;11.65;;;4.22;;
14619;SDS011;32125;48.518;9.050;2023-08-12T12:49:46;8.73;;;3.67;;
14619;SDS011;32125;48.518;9.050;2023-08-12T12:52:12;8.77;;;3.58;;
14619;SDS011;32125;48.518;9.050;2023-08-12T12:54:38;6.40;;;3.30;;
14619;SDS011;32125;48.518;9.050;2023-08-12T12:57:04;5.53;;;3.08;;
14619;SDS011;32125;48.518;9.050;2023-08-12T12:59:31;6.10;;;2.97;;
14619;SDS011;32125;48.518;9.050;2023-08-12T13:01:57;4.18;;;2.50;;
14619;SDS011;32125;48.518;9.050;2023-08-12T13:04:23;8.93;;;3.10;;
14619;SDS011;32125;48.518;9.050;2023-08-12T13:06:49;6.63;;;2.78;;
14619;SDS011;32125;48.518;9.050;2023-08-12T13:09:17;5.82;;;3.00;;
14619;SDS011;32125;48.518;9.050;2023-08-12T13:11:45;2.65;;;2.42;;
14619;SDS011;32125;48.518;9.050;2023-08-12T13:14:14;3.72;;;2.60;;
14619;SDS011;32125;48.518;9.050;2023-08-12T13:16:44;4.95;;;2.55;;
14619;SDS011;32125;48.518;9.050;2023-08-12T13:19:10;5.55;;;2.53;;
14619;SDS011;32125;48.518;9.050;2023-08-12T13:21:36;3.72;;;2.50;;
14619;SDS011;32125;48.518;9.050;2023-08-12T13:24:04;3.97;;;2.30;;
14619;SDS011;32125;48.518;9.050;2023-08-12T13:26:30;5.38;;;2.00;;
14619;SDS011;32125;48.518;9.050;2023-08-12T13:28:58;2.95;;;2.10;;
14619;SDS011;32125;48.518;9.050;2023-08-12T13:31:24;2.55;;;2.13;;
14619;SDS011;32125;48.518;9.050;2023-08-12T13:33:50;3.65;;;1.92;;
14619;SDS011;32125;48.518;9.050;2023-08-12T13:36:17;2.53;;;2.00;;
14619;SDS011;32125;48.518;9.050;2023-08-12T13:38:43;4.35;;;1.90;;
14619;SDS011;32125;48.518;9.050;2023-08-12T13:41:09;3.95;;;2.17;;
14619;SDS011;32125;48.518;9.050;2023-08-12T13:43:34;3.47;;;1.85;;
14619;SDS011;32125;48.518;9.050;2023-08-12T13:46:03;2.10;;;1.85;;
14619;SDS011;32125;48.518;9.050;2023-08-12T13:48:29;3.83;;;2.50;;
14619;SDS011;32125;48.518;9.050;2023-08-12T13:50:55;3.33;;;2.00;;
14619;SDS011;32125;48.518;9.050;2023-08-12T13:53:21;2.03;;;1.63;;
14619;SDS011;32125;48.518;9.050;2023-08-12T13:55:48;3.55;;;1.80;;
14619;SDS011;32125;48.518;9.050;2023-08-12T13:58:14;2.80;;;1.75;;
14619;SDS011;32125;48.518;9.050;2023-08-12T14:00:40;1.83;;;1.50;;
14619;SDS011;32125;48.518;9.050;2023-08-12T14:03:09;1.77;;;1.33;;
14619;SDS011;32125;48.518;9.050;2023-08-12T14:05:34;1.70;;;1.60;;
14619;SDS011;32125;48.518;9.050;2023-08-12T14:08:00;2.70;;;1.90;;
14619;SDS011;32125;48.518;9.050;2023-08-12T14:10:29;2.60;;;1.70;;
14619;SDS011;32125;48.518;9.050;2023-08-12T14:12:56;2.03;;;1.55;;
14619;SDS011;32125;48.518;9.050;2023-08-12T14:15:22;2.22;;;1.80;;
14619;SDS011;32125;48.518;9.050;2023-08-12T14:17:51;2.42;;;1.85;;
14619;SDS011;32125;48.518;9.050;2023-08-12T14:20:17;2.10;;;1.85;;
14619;SDS011;32125;48.518;9.050;2023-08-12T14:22:43;2.15;;;1.95;;
14619;SDS011;32125;48.518;9.050;2023-08-12T14:25:09;3.20;;;1.90;;
14619;SDS011;32125;48.518;9.050;2023-08-12T14:27:37;3.10;;;2.00;;
14619;SDS011;32125;48.518;9.050;2023-08-12T14:30:04;4.60;;;2.08;;
14619;SDS011;32125;48.518;9.050;2023-08-12T14:32:30;2.40;;;1.92;;
14619;SDS011;32125;48.518;9.050;2023-08-12T14:34:56;3.60;;;2.05;;
14619;SDS011;32125;48.518;9.050;2023-08-12T14:37:22;3.50;;;1.85;;
14619;SDS011;32125;48.518;9.050;2023-08-12T14:39:52;2.30;;;2.10;;
14619;SDS011;32125;48.518;9.050;2023-08-12T14:42:18;2.90;;;1.90;;
14619;SDS011;32125;48.518;9.050;2023-08-12T14:44:44;2.55;;;2.10;;
14619;SDS011;32125;48.518;9.050;2023-08-12T14:47:10;3.17;;;2.15;;
14619;SDS011;32125;48.518;9.050;2023-08-12T14:49:36;3.60;;;2.08;;
14619;SDS011;32125;48.518;9.050;2023-08-12T14:52:02;2.30;;;2.10;;
14619;SDS011;32125;48.518;9.050;2023-08-12T14:54:28;2.92;;;2.28;;
14619;SDS011;32125;48.518;9.050;2023-08-12T14:56:57;2.67;;;2.22;;
14619;SDS011;32125;48.518;9.050;2023-08-12T14:59:23;3.78;;;2.38;;